Terminal Aerodrome Forecast
Issued by NWS Knoxville/Tri Cities, TN

Current Version | Previous Version | Text Only | Print | Product List | Glossary On
Versions: 1 2 3 4 5 6 7 8 9 10 11 12 13 14 15 16 17 18
000
FTUS44 KMRX 281120
TAFCHA
TAF
KCHA 281120Z 2812/2912 00000KT P6SM FEW015 BKN150
     FM281400 01008KT P6SM SCT040 BKN090
     FM281900 36010KT P6SM FEW050 SCT150
     FM290100 00000KT P6SM SCT250=

USA.gov is the U.S. government's official web portal to all federal, state and local government web resources and services.